createdAt,value
2022-10-13T00:00:48.487Z,101520.66
2022-10-13T00:03:15.608Z,101515.38
2022-10-13T00:05:48.152Z,101514.69
2022-10-13T00:08:18.923Z,101512.00
2022-10-13T00:10:46.854Z,101513.75
2022-10-13T00:13:13.573Z,101512.16
2022-10-13T00:15:42.339Z,101514.06
2022-10-13T00:18:09.184Z,101509.63
2022-10-13T00:20:35.880Z,101507.00
2022-10-13T00:23:02.515Z,101501.88
2022-10-13T00:25:29.116Z,101504.34
2022-10-13T00:27:55.770Z,101505.16
2022-10-13T00:30:23.202Z,101496.50
2022-10-13T00:32:50.302Z,101502.41
2022-10-13T00:35:16.936Z,101498.09
2022-10-13T00:37:43.521Z,101492.88
2022-10-13T00:40:10.589Z,101498.97
2022-10-13T00:42:37.221Z,101498.03
2022-10-13T00:45:24.814Z,101494.41
2022-10-13T00:48:02.000Z,101495.28
2022-10-13T00:50:42.242Z,101487.69
2022-10-13T00:53:10.632Z,101479.94
2022-10-13T00:55:39.759Z,101477.19
2022-10-13T00:58:10.404Z,101477.25
2022-10-13T01:00:37.045Z,101485.22
2022-10-13T01:03:04.226Z,101466.22
2022-10-13T01:05:31.245Z,101466.31
2022-10-13T01:07:59.388Z,101463.91
2022-10-13T01:10:35.164Z,101461.72
2022-10-13T01:13:13.808Z,101468.06
2022-10-13T01:15:57.248Z,101456.94
2022-10-13T01:18:40.960Z,101453.75
2022-10-13T01:21:16.603Z,101452.88
2022-10-13T01:23:49.083Z,101454.81
2022-10-13T01:26:21.574Z,101452.28
2022-10-13T01:29:37.552Z,101434.50
2022-10-13T01:32:10.797Z,101433.75
2022-10-13T01:34:50.069Z,101427.84
2022-10-13T01:37:34.767Z,101423.72
2022-10-13T01:40:25.657Z,101427.47
2022-10-13T01:43:04.317Z,101418.03
2022-10-13T01:45:37.528Z,101412.25
2022-10-13T01:48:06.137Z,101413.16
2022-10-13T01:50:40.831Z,101406.31
2022-10-13T01:53:08.544Z,101403.72
2022-10-13T01:55:35.143Z,101397.84
2022-10-13T01:58:01.696Z,101397.13
2022-10-13T02:00:40.236Z,101394.63
2022-10-13T02:03:21.306Z,101399.06
2022-10-13T02:06:01.708Z,101392.31
2022-10-13T02:08:48.885Z,101393.31
2022-10-13T02:11:21.490Z,101387.25
2022-10-13T02:13:57.601Z,101381.97
2022-10-13T02:16:28.947Z,101379.44
2022-10-13T02:18:57.122Z,101378.63
2022-10-13T02:21:24.430Z,101375.84
2022-10-13T02:23:51.636Z,101372.41
2022-10-13T02:26:20.124Z,101377.69
2022-10-13T02:28:51.294Z,101367.34
2022-10-13T02:31:18.013Z,101373.31
2022-10-13T02:33:44.534Z,101374.31
2022-10-13T02:36:11.104Z,101365.81
2022-10-13T02:38:37.582Z,101366.88
2022-10-13T02:41:04.156Z,101367.03
2022-10-13T02:43:30.877Z,101362.66
2022-10-13T02:45:57.476Z,101355.78
2022-10-13T02:48:24.040Z,101353.28
2022-10-13T02:50:50.749Z,101343.78
2022-10-13T02:53:17.751Z,101338.56
2022-10-13T02:55:44.490Z,101336.72
2022-10-13T02:58:11.071Z,101348.88
2022-10-13T03:00:39.622Z,101346.38
2022-10-13T03:03:06.745Z,101339.53
2022-10-13T03:05:33.493Z,101336.25
2022-10-13T03:08:00.012Z,101341.47
2022-10-13T03:10:26.985Z,101351.88
2022-10-13T03:12:55.765Z,101352.94
2022-10-13T03:15:22.576Z,101350.34
2022-10-13T03:17:49.488Z,101352.81
2022-10-13T03:20:16.502Z,101343.16
2022-10-13T03:22:46.056Z,101336.16
2022-10-13T03:25:16.190Z,101332.66
2022-10-13T03:27:43.319Z,101331.72
2022-10-13T03:30:10.588Z,101338.47
2022-10-13T03:32:38.923Z,101331.69
2022-10-13T03:35:06.358Z,101316.25
2022-10-13T03:37:32.961Z,101321.56
2022-10-13T03:39:59.975Z,101326.00
2022-10-13T03:42:26.511Z,101326.97
2022-10-13T03:44:56.289Z,101328.59
2022-10-13T03:47:23.758Z,101319.94
2022-10-13T03:49:50.330Z,101308.00
2022-10-13T03:52:17.132Z,101310.53
2022-10-13T03:54:43.954Z,101310.78
2022-10-13T03:57:10.505Z,101317.97
2022-10-13T03:59:37.243Z,101311.38
2022-10-13T04:02:04.494Z,101311.28
2022-10-13T04:04:31.086Z,101305.09
2022-10-13T04:06:57.735Z,101297.59
2022-10-13T04:09:24.400Z,101292.53
2022-10-13T04:11:52.318Z,101293.53
2022-10-13T04:14:20.121Z,101286.66
2022-10-13T04:16:46.822Z,101277.84
2022-10-13T04:19:15.178Z,101278.75
2022-10-13T04:21:42.799Z,101277.00
2022-10-13T04:24:17.631Z,101277.00
2022-10-13T04:26:45.158Z,101273.47
2022-10-13T04:29:12.225Z,101270.66
2022-10-13T04:31:40.669Z,101263.66
2022-10-13T04:34:07.803Z,101274.69
2022-10-13T04:36:34.442Z,101268.50
2022-10-13T04:39:01.015Z,101258.94
2022-10-13T04:41:27.874Z,101258.09
2022-10-13T04:43:55.065Z,101267.19
2022-10-13T04:46:24.467Z,101252.50
2022-10-13T04:48:51.705Z,101254.34
2022-10-13T04:51:24.050Z,101250.72
2022-10-13T04:54:01.453Z,101248.22
2022-10-13T04:56:28.753Z,101241.94
2022-10-13T04:58:59.832Z,101242.84
2022-10-13T05:01:26.681Z,101231.59
2022-10-13T05:04:01.419Z,101236.03
2022-10-13T05:06:33.136Z,101238.41
2022-10-13T05:09:00.205Z,101232.19
2022-10-13T05:11:29.878Z,101220.03
2022-10-13T05:13:57.407Z,101219.34
2022-10-13T05:16:24.975Z,101216.69
2022-10-13T05:18:53.969Z,101220.03
2022-10-13T05:21:30.455Z,101214.69
2022-10-13T05:23:58.742Z,101215.34
2022-10-13T05:26:29.060Z,101214.59
2022-10-13T05:28:57.238Z,101217.91
2022-10-13T05:31:26.862Z,101220.50
2022-10-13T05:33:54.087Z,101211.06
2022-10-13T05:36:33.516Z,101208.41
2022-10-13T05:39:05.708Z,101198.75
2022-10-13T05:41:32.675Z,101201.34
2022-10-13T05:44:02.801Z,101197.72
2022-10-13T05:46:29.481Z,101200.19
2022-10-13T05:48:56.116Z,101198.41
2022-10-13T05:51:26.980Z,101192.22
2022-10-13T05:54:01.249Z,101191.13
2022-10-13T05:56:36.743Z,101191.78
2022-10-13T05:59:06.687Z,101189.94
2022-10-13T06:01:38.143Z,101188.09
2022-10-13T06:04:08.639Z,101188.78
2022-10-13T06:06:35.569Z,101188.53
2022-10-13T06:09:02.209Z,101179.97
2022-10-13T06:11:28.873Z,101185.84
2022-10-13T06:13:55.501Z,101186.28
2022-10-13T06:16:22.118Z,101174.78
2022-10-13T06:18:48.747Z,101179.97
2022-10-13T06:21:15.282Z,101179.97
2022-10-13T06:23:41.873Z,101187.53
2022-10-13T06:26:11.281Z,101173.53
2022-10-13T06:28:38.170Z,101178.72
2022-10-13T06:31:06.517Z,101169.13
2022-10-13T06:33:34.174Z,101168.97
2022-10-13T06:36:05.054Z,101170.00
2022-10-13T06:38:32.591Z,101163.09
2022-10-13T06:41:01.052Z,101161.31
2022-10-13T06:43:37.251Z,101163.91
2022-10-13T06:46:09.742Z,101156.19
2022-10-13T06:48:36.321Z,101161.16
2022-10-13T06:51:05.547Z,101148.13
2022-10-13T06:53:32.494Z,101164.50
2022-10-13T06:56:00.616Z,101153.06
2022-10-13T06:58:28.313Z,101155.34
2022-10-13T07:00:55.699Z,101155.00
2022-10-13T07:03:23.923Z,101161.72
2022-10-13T07:05:50.502Z,101160.63
2022-10-13T07:08:17.153Z,101156.97
2022-10-13T07:10:43.737Z,101155.88
2022-10-13T07:13:10.270Z,101156.78
2022-10-13T07:15:40.573Z,101156.50
2022-10-13T07:18:07.438Z,101146.41
2022-10-13T07:20:34.334Z,101138.81
2022-10-13T07:23:00.954Z,101138.16
2022-10-13T07:25:28.099Z,101138.47
2022-10-13T07:27:54.821Z,101147.78
2022-10-13T07:30:21.492Z,101131.13
2022-10-13T07:32:48.874Z,101139.88
2022-10-13T07:35:15.602Z,101143.91
2022-10-13T07:37:42.150Z,101144.38
2022-10-13T07:40:09.340Z,101139.88
2022-10-13T07:42:36.065Z,101137.97
2022-10-13T07:45:02.812Z,101138.69
2022-10-13T07:47:30.433Z,101130.31
2022-10-13T07:49:57.039Z,101131.53
2022-10-13T07:52:23.595Z,101127.06
2022-10-13T07:54:51.287Z,101127.13
2022-10-13T07:57:18.344Z,101122.59
2022-10-13T07:59:45.172Z,101119.78
2022-10-13T08:02:13.198Z,101112.41
2022-10-13T08:04:39.828Z,101114.84
2022-10-13T08:07:06.906Z,101115.28
2022-10-13T08:09:33.747Z,101117.44
2022-10-13T08:12:01.778Z,101112.72
2022-10-13T08:14:29.586Z,101113.09
2022-10-13T08:16:57.079Z,101115.72
2022-10-13T08:19:26.298Z,101112.00
2022-10-13T08:21:58.195Z,101107.22
2022-10-13T08:24:26.312Z,101112.56
2022-10-13T08:26:53.122Z,101098.06
2022-10-13T08:29:22.359Z,101108.56
2022-10-13T08:31:52.737Z,101108.56
2022-10-13T08:34:20.252Z,101102.75
2022-10-13T08:36:47.271Z,101095.53
2022-10-13T08:39:14.109Z,101104.53
2022-10-13T08:41:43.958Z,101099.34
2022-10-13T08:47:24.573Z,101098.13
2022-10-13T08:49:52.149Z,101099.19
2022-10-13T08:52:28.347Z,101093.00
2022-10-13T08:54:56.366Z,101089.66
2022-10-13T08:57:23.469Z,101100.53
2022-10-13T08:59:51.374Z,101095.22
2022-10-13T09:02:29.871Z,101094.38
2022-10-13T09:04:58.802Z,101094.59
2022-10-13T09:07:29.853Z,101090.31
2022-10-13T09:09:56.554Z,101090.97
2022-10-13T09:12:25.226Z,101085.06
2022-10-13T09:15:05.699Z,101085.75
2022-10-13T09:17:34.141Z,101087.44
2022-10-13T09:20:16.529Z,101080.13
2022-10-13T09:22:43.897Z,101077.31
2022-10-13T09:25:22.186Z,101080.19
2022-10-13T09:28:00.554Z,101082.81
2022-10-13T09:30:34.649Z,101077.34
2022-10-13T09:33:09.371Z,101071.38
2022-10-13T09:35:36.958Z,101075.28
2022-10-13T09:38:04.503Z,101065.47
2022-10-13T09:40:32.336Z,101071.28
2022-10-13T09:43:01.782Z,101060.22
2022-10-13T09:45:30.948Z,101059.94
2022-10-13T09:48:05.643Z,101059.28
2022-10-13T09:50:35.513Z,101065.19
2022-10-13T09:53:26.386Z,101058.25
2022-10-13T09:56:23.474Z,101065.59
2022-10-13T09:59:06.193Z,101058.59
2022-10-13T10:01:38.674Z,101057.31
2022-10-13T10:04:10.959Z,101053.88
2022-10-13T10:06:40.365Z,101052.00
2022-10-13T10:09:34.896Z,101042.69
2022-10-13T10:12:04.050Z,101044.44
2022-10-13T10:14:37.710Z,101038.25
2022-10-13T10:17:35.257Z,101036.59
2022-10-13T10:20:17.127Z,101040.97
2022-10-13T10:23:14.122Z,101036.91
2022-10-13T10:25:46.693Z,101039.38
2022-10-13T10:28:56.990Z,101042.34
2022-10-13T10:31:50.471Z,101025.47
2022-10-13T10:34:54.485Z,101019.41
2022-10-13T10:37:33.257Z,101016.94
2022-10-13T10:40:08.835Z,101025.88
2022-10-13T10:42:53.706Z,101010.59
2022-10-13T10:45:27.403Z,101016.47
2022-10-13T10:47:59.598Z,101009.09
2022-10-13T10:50:28.605Z,101007.22
2022-10-13T10:53:33.028Z,101004.47
2022-10-13T10:56:30.687Z,101000.28
2022-10-13T10:59:22.614Z,100998.34
2022-10-13T11:02:03.759Z,100994.00
2022-10-13T11:04:44.248Z,100989.69
2022-10-13T11:07:24.290Z,100987.06
2022-10-13T11:09:57.371Z,100982.47
2022-10-13T11:12:25.961Z,100979.31
2022-10-13T11:15:13.992Z,100975.25
2022-10-13T11:17:41.914Z,100980.47
2022-10-13T11:20:18.169Z,100987.94
2022-10-13T11:23:00.162Z,100988.00
2022-10-13T11:25:35.871Z,100979.31
2022-10-13T11:28:42.658Z,100992.22
2022-10-13T11:31:13.987Z,100972.91
2022-10-13T11:33:40.652Z,100976.97
2022-10-13T11:36:37.970Z,100968.38
2022-10-13T11:42:14.777Z,100959.19
2022-10-13T11:44:54.544Z,100965.66
2022-10-13T11:47:48.968Z,100969.47
2022-10-13T11:50:33.307Z,100963.13
2022-10-13T11:53:18.746Z,100954.09
2022-10-13T11:55:58.785Z,100956.69
2022-10-13T11:58:32.932Z,100951.09
2022-10-13T12:01:01.145Z,100953.56
2022-10-13T12:03:33.895Z,100953.22
2022-10-13T12:06:06.294Z,100951.56
2022-10-13T12:08:35.294Z,100942.22
2022-10-13T12:11:07.533Z,100941.66
2022-10-13T12:13:36.177Z,100943.72
2022-10-13T12:16:06.306Z,100949.78
2022-10-13T12:18:39.069Z,100939.09
2022-10-13T12:21:17.312Z,100948.41
2022-10-13T12:23:44.091Z,100946.53
2022-10-13T12:26:20.432Z,100941.97
2022-10-13T12:28:51.906Z,100947.47
2022-10-13T12:31:22.377Z,100951.13
2022-10-13T12:34:00.451Z,100945.00
2022-10-13T12:36:31.276Z,100950.25
2022-10-13T12:39:07.670Z,100944.19
2022-10-13T12:41:40.751Z,100936.81
2022-10-13T12:44:15.051Z,100945.81
2022-10-13T12:46:42.897Z,100947.16
2022-10-13T12:51:49.379Z,100942.25
2022-10-13T12:54:21.053Z,100948.22
2022-10-13T12:56:53.779Z,100949.66
2022-10-13T12:59:24.386Z,100947.22
2022-10-13T13:02:20.038Z,100959.66
2022-10-13T13:04:47.201Z,100955.88
2022-10-13T13:07:31.748Z,100950.31
2022-10-13T13:10:00.830Z,100952.84
2022-10-13T13:12:29.214Z,100950.00
2022-10-13T13:14:56.792Z,100944.00
2022-10-13T13:17:57.290Z,100934.16
2022-10-13T13:20:22.937Z,100937.31
2022-10-13T13:22:50.744Z,100940.34
2022-10-13T13:25:17.340Z,100937.44
2022-10-13T13:27:43.843Z,100944.84
2022-10-13T13:30:16.924Z,100936.81
2022-10-13T13:32:43.570Z,100927.91
2022-10-13T13:35:10.477Z,100923.41
2022-10-13T13:37:44.465Z,100926.97
2022-10-13T13:40:24.033Z,100920.81
2022-10-13T13:42:50.851Z,100917.47
2022-10-13T13:45:21.212Z,100911.06
2022-10-13T13:47:49.784Z,100916.47
2022-10-13T13:50:22.011Z,100926.03
2022-10-13T13:52:56.241Z,100915.03
2022-10-13T13:55:23.347Z,100915.13
2022-10-13T13:57:49.922Z,100914.00
2022-10-13T14:00:17.950Z,100912.72
2022-10-13T14:02:49.538Z,100919.59
2022-10-13T14:05:16.314Z,100917.91
2022-10-13T14:07:42.970Z,100906.47
2022-10-13T14:10:10.811Z,100903.66
2022-10-13T14:12:37.742Z,100903.88
2022-10-13T14:15:05.014Z,100899.56
2022-10-13T14:17:31.629Z,100903.66
2022-10-13T14:20:00.305Z,100897.81
2022-10-13T14:22:27.084Z,100892.66
2022-10-13T14:24:54.299Z,100895.06
2022-10-13T14:27:21.126Z,100895.47
2022-10-13T14:29:47.780Z,100893.50
2022-10-13T14:32:15.496Z,100897.06
2022-10-13T14:34:42.092Z,100897.06
2022-10-13T14:37:08.642Z,100895.91
2022-10-13T14:39:35.257Z,100896.44
2022-10-13T14:42:01.901Z,100896.97
2022-10-13T14:44:28.631Z,100896.13
2022-10-13T14:46:55.316Z,100895.41
2022-10-13T14:49:22.387Z,100893.72
2022-10-13T14:51:51.270Z,100891.19
2022-10-13T14:54:18.625Z,100898.63
2022-10-13T14:56:45.359Z,100887.97
2022-10-13T14:59:12.784Z,100892.22
2022-10-13T15:01:41.736Z,100890.31
2022-10-13T15:04:09.124Z,100886.59
2022-10-13T15:06:40.290Z,100887.25
2022-10-13T15:11:36.435Z,100884.31
2022-10-13T15:14:03.238Z,100881.16
2022-10-13T15:16:33.590Z,100888.81
2022-10-13T15:19:00.442Z,100878.13
2022-10-13T15:21:27.092Z,100888.72
2022-10-13T15:23:53.786Z,100878.09
2022-10-13T15:26:20.599Z,100880.88
2022-10-13T15:28:51.108Z,100885.19
2022-10-13T15:31:19.388Z,100885.69
2022-10-13T15:33:49.320Z,100883.13
2022-10-13T15:36:17.041Z,100887.72
2022-10-13T15:38:45.654Z,100890.78
2022-10-13T15:41:12.898Z,100885.94
2022-10-13T15:43:39.578Z,100884.09
2022-10-13T15:46:10.447Z,100881.91
2022-10-13T15:48:37.383Z,100885.44
2022-10-13T15:51:13.457Z,100889.13
2022-10-13T15:53:40.090Z,100881.78
2022-10-13T15:56:07.793Z,100872.75
2022-10-13T15:58:35.898Z,100877.00
2022-10-13T16:01:07.501Z,100874.78
2022-10-13T16:03:34.328Z,100871.31
2022-10-13T16:06:04.422Z,100880.75
2022-10-13T16:08:31.528Z,100882.84
2022-10-13T16:10:58.174Z,100875.53
2022-10-13T16:13:24.817Z,100873.84
2022-10-13T16:16:01.142Z,100871.25
2022-10-13T16:18:32.522Z,100875.19
2022-10-13T16:20:59.188Z,100877.50
2022-10-13T16:23:26.253Z,100869.66
2022-10-13T16:25:53.153Z,100874.59
2022-10-13T16:28:19.952Z,100869.78
2022-10-13T16:30:46.577Z,100865.69
2022-10-13T16:33:13.167Z,100871.56
2022-10-13T16:35:39.863Z,100867.03
2022-10-13T16:38:06.465Z,100867.16
2022-10-13T16:40:33.073Z,100864.22
2022-10-13T16:42:59.698Z,100870.16
2022-10-13T16:45:41.334Z,100871.53
2022-10-13T16:48:13.122Z,100861.50
2022-10-13T16:50:39.633Z,100862.50
2022-10-13T16:53:06.199Z,100863.03
2022-10-13T16:55:32.846Z,100867.63
2022-10-13T16:57:59.460Z,100861.88
2022-10-13T17:00:26.160Z,100861.47
2022-10-13T17:02:53.104Z,100869.53
2022-10-13T17:05:19.727Z,100863.44
2022-10-13T17:07:46.350Z,100863.09
2022-10-13T17:10:12.933Z,100860.94
2022-10-13T17:12:39.554Z,100860.22
2022-10-13T17:15:06.569Z,100853.44
2022-10-13T17:17:33.222Z,100858.22
2022-10-13T17:19:59.844Z,100863.66
2022-10-13T17:22:26.474Z,100855.00
2022-10-13T17:24:53.142Z,100859.16
2022-10-13T17:27:20.096Z,100862.31
2022-10-13T17:29:46.974Z,100865.03
2022-10-13T17:32:13.613Z,100861.75
2022-10-13T17:34:40.250Z,100860.88
2022-10-13T17:37:07.330Z,100867.66
2022-10-13T17:39:34.392Z,100857.97
2022-10-13T17:42:01.034Z,100852.03
2022-10-13T17:44:27.636Z,100857.47
2022-10-13T17:46:54.195Z,100855.50
2022-10-13T17:49:20.866Z,100850.72
2022-10-13T17:51:51.702Z,100849.03
2022-10-13T17:54:22.311Z,100850.28
2022-10-13T17:56:49.444Z,100852.38
2022-10-13T17:59:17.571Z,100850.72
2022-10-13T18:01:45.101Z,100852.38
2022-10-13T18:04:14.224Z,100853.41
2022-10-13T18:06:43.720Z,100856.13
2022-10-13T18:09:16.528Z,100854.47
2022-10-13T18:11:49.821Z,100856.75
2022-10-13T18:14:18.546Z,100857.88
2022-10-13T18:16:45.446Z,100865.78
2022-10-13T18:19:12.647Z,100859.81
2022-10-13T18:21:39.300Z,100861.47
2022-10-13T18:24:06.271Z,100859.84
2022-10-13T18:26:35.775Z,100853.38
2022-10-13T18:29:03.907Z,100853.22
2022-10-13T18:31:32.801Z,100861.06
2022-10-13T18:34:02.492Z,100854.31
2022-10-13T18:36:36.629Z,100850.31
2022-10-13T18:39:13.679Z,100853.41
2022-10-13T18:41:45.957Z,100846.41
2022-10-13T18:44:13.039Z,100849.91
2022-10-13T18:46:40.370Z,100849.06
2022-10-13T18:49:08.537Z,100846.09
2022-10-13T18:51:39.016Z,100847.97
2022-10-13T18:54:06.726Z,100845.59
2022-10-13T18:56:34.777Z,100839.91
2022-10-13T18:59:02.729Z,100839.88
2022-10-13T19:01:31.932Z,100840.22
2022-10-13T19:03:58.631Z,100843.91
2022-10-13T19:06:27.665Z,100839.53
2022-10-13T19:09:04.298Z,100845.28
2022-10-13T19:11:35.387Z,100841.66
2022-10-13T19:14:03.045Z,100847.56
2022-10-13T19:16:31.345Z,100846.47
2022-10-13T19:18:58.023Z,100840.66
2022-10-13T19:21:25.060Z,100843.53
2022-10-13T19:23:51.730Z,100843.06
2022-10-13T19:26:28.418Z,100834.47
2022-10-13T19:29:07.455Z,100836.88
2022-10-13T19:31:35.664Z,100836.94
2022-10-13T19:34:06.986Z,100834.31
2022-10-13T19:36:37.737Z,100839.63
2022-10-13T19:39:09.278Z,100841.13
2022-10-13T19:41:38.218Z,100845.50
2022-10-13T19:44:04.916Z,100835.78
2022-10-13T19:46:38.539Z,100833.78
2022-10-13T19:49:05.678Z,100836.91
2022-10-13T19:51:33.504Z,100830.97
2022-10-13T19:54:00.754Z,100841.03
2022-10-13T19:56:33.912Z,100836.16
2022-10-13T19:59:01.852Z,100828.38
2022-10-13T20:01:28.575Z,100835.59
2022-10-13T20:03:57.456Z,100836.63
2022-10-13T20:06:24.079Z,100833.94
2022-10-13T20:08:50.714Z,100831.75
2022-10-13T20:11:24.127Z,100839.75
2022-10-13T20:13:52.046Z,100838.03
2022-10-13T20:16:21.416Z,100833.75
2022-10-13T20:18:56.309Z,100835.66
2022-10-13T20:21:24.078Z,100828.75
2022-10-13T20:23:51.251Z,100830.25
2022-10-13T20:26:18.855Z,100831.41
2022-10-13T20:28:46.939Z,100833.41
2022-10-13T20:31:15.945Z,100829.03
2022-10-13T20:33:42.721Z,100823.38
2022-10-13T20:36:12.467Z,100827.88
2022-10-13T20:38:39.502Z,100826.00
2022-10-13T20:41:24.857Z,100825.25
2022-10-13T20:43:53.163Z,100829.03
2022-10-13T20:46:21.598Z,100825.56
2022-10-13T20:51:36.504Z,100824.41
2022-10-13T20:54:03.093Z,100835.28
2022-10-13T20:56:29.884Z,100828.78
2022-10-13T20:58:56.700Z,100821.59
2022-10-13T21:01:23.877Z,100819.31
2022-10-13T21:03:54.459Z,100827.66
2022-10-13T21:06:23.407Z,100818.97
2022-10-13T21:08:50.821Z,100812.94
2022-10-13T21:11:20.356Z,100811.88
2022-10-13T21:13:48.075Z,100815.63
2022-10-13T21:16:17.350Z,100811.25
2022-10-13T21:18:49.058Z,100812.81
2022-10-13T21:21:19.279Z,100810.94
2022-10-13T21:23:57.786Z,100807.59
2022-10-13T21:26:26.919Z,100810.06
2022-10-13T21:28:53.680Z,100819.59
2022-10-13T21:31:22.220Z,100816.25
2022-10-13T21:33:49.712Z,100816.16
2022-10-13T21:36:23.246Z,100821.69
2022-10-13T21:38:55.869Z,100818.75
2022-10-13T21:41:23.002Z,100808.81
2022-10-13T21:43:50.473Z,100815.59
2022-10-13T21:46:26.703Z,100803.47
2022-10-13T21:48:55.262Z,100806.19
2022-10-13T21:51:24.657Z,100813.44
2022-10-13T21:53:56.862Z,100802.25
2022-10-13T21:56:25.491Z,100802.97
2022-10-13T21:58:52.376Z,100805.78
2022-10-13T22:01:19.818Z,100796.91
2022-10-13T22:03:48.008Z,100801.63
2022-10-13T22:06:19.370Z,100798.81
2022-10-13T22:08:48.781Z,100800.47
2022-10-13T22:11:22.729Z,100799.63
2022-10-13T22:13:49.628Z,100805.91
2022-10-13T22:16:20.680Z,100808.53
2022-10-13T22:18:48.400Z,100793.06
2022-10-13T22:21:25.204Z,100796.19
2022-10-13T22:23:52.049Z,100796.78
2022-10-13T22:26:19.140Z,100792.13
2022-10-13T22:28:51.320Z,100790.97
2022-10-13T22:31:18.743Z,100796.09
2022-10-13T22:33:46.472Z,100799.03
2022-10-13T22:36:18.622Z,100792.66
2022-10-13T22:38:46.845Z,100795.34
2022-10-13T22:41:14.759Z,100783.84
2022-10-13T22:43:46.626Z,100792.66
2022-10-13T22:46:15.099Z,100789.41
2022-10-13T22:48:41.931Z,100785.75
2022-10-13T22:51:15.819Z,100793.06
2022-10-13T22:53:42.637Z,100789.72
2022-10-13T22:56:12.985Z,100786.97
2022-10-13T22:58:39.677Z,100790.50
2022-10-13T23:01:14.572Z,100788.09
2022-10-13T23:03:42.395Z,100788.63
2022-10-13T23:06:13.492Z,100786.81
2022-10-13T23:08:41.598Z,100790.31
2022-10-13T23:11:08.338Z,100787.53
2022-10-13T23:13:35.341Z,100795.19
2022-10-13T23:16:10.443Z,100782.34
2022-10-13T23:18:42.648Z,100783.00
2022-10-13T23:21:23.923Z,100784.97
2022-10-13T23:24:04.691Z,100783.81
2022-10-13T23:26:32.396Z,100785.13
2022-10-13T23:28:59.729Z,100781.94
2022-10-13T23:31:27.507Z,100775.66
2022-10-13T23:33:54.371Z,100781.06
2022-10-13T23:36:24.243Z,100772.50
2022-10-13T23:39:03.602Z,100779.50
2022-10-13T23:41:30.663Z,100778.56
2022-10-13T23:43:57.591Z,100781.38
2022-10-13T23:46:24.670Z,100768.34
2022-10-13T23:48:51.603Z,100769.44
2022-10-13T23:51:20.517Z,100771.25
2022-10-13T23:53:47.373Z,100774.72
2022-10-13T23:56:15.152Z,100768.06
2022-10-13T23:58:43.789Z,100771.50
